Time;durP1;ratioP1;P1;durP2;ratioP2;P2;SDS_P1;SDS_P2;PMS_P1;PMS_P2;Temp;Humidity;BMP_temperature;BMP_pressure;BME280_temperature;BME280_humidity;BME280_pressure;Samples;Min_cycle;Max_cycle;Signal;HPM_P1;HPM_P2
2022/12/05 00:04:12;;;;;;;57.45;25.30;;;;;;;1.43;79.42;100617.34;10382301;28;20042;-78
2022/12/05 00:09:15;;;;;;;56.10;22.88;;;;;;;1.43;79.48;100624.41;10353104;28;20042;-77
2022/12/05 00:14:19;;;;;;;57.13;23.30;;;;;;;1.48;79.29;100627.72;10377955;28;20030;-79
2022/12/05 00:19:22;;;;;;;57.47;25.15;;;;;;;1.38;79.71;100635.19;10380172;28;20080;-77
2022/12/05 00:24:25;;;;;;;59.05;23.45;;;;;;;1.49;79.14;100626.81;10396642;28;20244;-78
2022/12/05 00:29:29;;;;;;;55.40;23.30;;;;;;;1.44;79.21;100627.00;10377046;28;20491;-77
2022/12/05 00:34:32;;;;;;;52.13;21.33;;;;;;;1.42;79.39;100623.53;10374912;28;20070;-77
2022/12/05 00:39:35;;;;;;;46.95;22.52;;;;;;;1.44;79.41;100619.03;10382567;28;20125;-78
2022/12/05 00:44:39;;;;;;;51.92;22.40;;;;;;;1.48;79.29;100611.84;10382922;28;20073;-79
2022/12/05 00:49:42;;;;;;;50.33;22.45;;;;;;;1.46;79.32;100611.91;10365871;28;20046;-78
2022/12/05 00:54:45;;;;;;;45.38;21.50;;;;;;;1.56;79.18;100616.84;10377379;28;20543;-78
2022/12/05 00:59:49;;;;;;;44.15;19.75;;;;;;;1.57;79.16;100603.53;10382676;28;20046;-79
2022/12/05 01:04:51;;;;;;;46.00;21.52;;;;;;;1.58;78.95;100594.66;10383506;28;20042;-78
2022/12/05 01:09:54;;;;;;;40.75;20.58;;;;;;;1.60;79.03;100586.66;10383028;28;20081;-79
2022/12/05 01:14:59;;;;;;;48.13;21.35;;;;;;;1.63;78.76;100595.34;10383681;28;20483;-79
2022/12/05 01:20:02;;;;;;;47.17;20.45;;;;;;;1.59;78.89;100590.22;10382664;28;20084;-78
2022/12/05 01:25:05;;;;;;;42.72;20.80;;;;;;;1.66;78.79;100610.25;10378561;28;20141;-79
2022/12/05 01:30:10;;;;;;;42.78;20.13;;;;;;;1.67;78.37;100602.25;10406087;28;20395;-77
2022/12/05 01:35:13;;;;;;;42.53;19.08;;;;;;;1.67;78.36;100612.84;10397795;28;20038;-79
2022/12/05 01:40:16;;;;;;;41.63;19.88;;;;;;;1.71;78.31;100602.97;10383003;28;20073;-79
2022/12/05 01:45:26;;;;;;;42.58;20.63;;;;;;;1.72;78.19;100608.19;10385881;28;20648;-79
2022/12/05 01:50:29;;;;;;;41.22;19.95;;;;;;;1.78;78.12;100612.38;10383326;28;20050;-80
2022/12/05 01:55:35;;;;;;;47.60;21.52;;;;;;;1.73;78.07;100606.44;10383775;28;20034;-79
2022/12/05 02:00:40;;;;;;;43.92;20.27;;;;;;;1.82;78.14;100615.78;10374685;28;20081;-79
2022/12/05 02:05:44;;;;;;;43.22;20.63;;;;;;;1.82;77.98;100614.00;10377788;28;20041;-78
2022/12/05 02:10:51;;;;;;;40.10;19.35;;;;;;;1.78;77.78;100612.38;10380063;28;20490;-78
2022/12/05 02:16:01;;;;;;;42.67;20.20;;;;;;;1.85;78.00;100613.88;10404390;28;20046;-79
2022/12/05 02:21:20;;;;;;;38.70;17.75;;;;;;;1.79;77.74;100616.78;10362924;28;20081;-79
2022/12/05 02:26:48;;;;;;;41.10;19.80;;;;;;;1.78;77.98;100617.69;10378988;28;20069;-77
2022/12/05 02:32:00;;;;;;;38.25;18.60;;;;;;;1.81;78.01;100624.66;10380384;28;20076;-79
2022/12/05 02:37:10;;;;;;;43.38;19.67;;;;;;;1.88;78.03;100615.53;10379290;28;20210;-78
2022/12/05 02:42:17;;;;;;;39.63;19.27;;;;;;;1.87;77.98;100613.81;10380361;28;20073;-79
2022/12/05 02:47:26;;;;;;;36.78;18.13;;;;;;;1.86;77.99;100615.59;10373456;28;20049;-79
2022/12/05 02:52:31;;;;;;;39.78;20.20;;;;;;;1.91;77.96;100612.75;10373000;28;20077;-78
2022/12/05 02:57:36;;;;;;;33.70;18.48;;;;;;;1.91;77.77;100615.41;10378919;28;20042;-78
2022/12/05 03:02:41;;;;;;;36.20;18.08;;;;;;;1.95;77.86;100615.22;10378622;28;20044;-80
2022/12/05 03:07:47;;;;;;;35.75;18.42;;;;;;;1.97;77.72;100623.09;10360840;28;20143;-78
2022/12/05 03:12:55;;;;;;;34.70;18.20;;;;;;;1.97;77.84;100624.88;10377391;28;20042;-78
2022/12/05 03:18:05;;;;;;;37.10;18.42;;;;;;;1.92;78.00;100612.69;10377115;28;20038;-78
2022/12/05 03:23:13;;;;;;;38.17;18.88;;;;;;;1.87;78.37;100617.31;10391790;28;20134;-77
2022/12/05 03:28:23;;;;;;;40.05;18.33;;;;;;;1.84;78.79;100620.09;10401917;28;20046;-76
2022/12/05 03:33:31;;;;;;;38.70;18.23;;;;;;;1.83;79.06;100613.06;10400777;28;20061;-79
2022/12/05 03:38:40;;;;;;;39.15;19.23;;;;;;;1.83;79.29;100620.16;10377501;28;20052;-79
2022/12/05 03:43:51;;;;;;;35.78;18.58;;;;;;;1.83;79.64;100618.34;10376473;28;20065;-78
2022/12/05 03:48:59;;;;;;;46.30;21.10;;;;;;;1.82;80.10;100611.34;10375788;28;20101;-78
2022/12/05 03:54:06;;;;;;;38.42;19.50;;;;;;;1.80;80.51;100612.34;10375893;28;20478;-79
2022/12/05 03:59:15;;;;;;;41.85;19.55;;;;;;;1.79;80.96;100615.94;10375379;28;20069;-78
2022/12/05 04:04:26;;;;;;;43.35;21.33;;;;;;;1.79;81.05;100607.97;10358115;28;20141;-78
2022/12/05 04:09:34;;;;;;;47.08;21.90;;;;;;;1.80;81.14;100612.34;10375209;28;20102;-78
2022/12/05 04:14:42;;;;;;;48.20;22.55;;;;;;;1.82;81.47;100607.84;10375983;28;20045;-79
2022/12/05 04:30:35;;;;;;;;;;;;;;;1.83;81.58;100612.22;10392421;28;20046;-78
2022/12/05 04:35:43;;;;;;;43.60;21.40;;;;;;;1.85;81.67;100616.53;10374613;28;19969;-79
2022/12/05 04:40:53;;;;;;;45.58;21.30;;;;;;;1.87;81.73;100608.53;10347729;28;20220;-79
2022/12/05 04:45:59;;;;;;;45.65;21.38;;;;;;;1.87;81.81;100611.16;10371794;28;20054;-78
2022/12/05 04:51:07;;;;;;;43.40;20.67;;;;;;;1.89;81.80;100609.28;10360923;28;20414;-78
2022/12/05 04:56:12;;;;;;;43.55;20.05;;;;;;;1.88;81.66;100612.88;10378298;28;20038;-78
2022/12/05 05:01:19;;;;;;;42.05;19.17;;;;;;;1.89;81.72;100610.19;10381233;28;20062;-78
2022/12/05 05:06:25;;;;;;;38.17;19.23;;;;;;;1.92;81.64;100601.22;10382673;28;20453;-78
2022/12/05 05:11:31;;;;;;;47.50;20.80;;;;;;;1.90;81.67;100603.09;10373405;28;20084;-79
2022/12/05 05:16:36;;;;;;;47.03;20.65;;;;;;;1.91;81.62;100605.66;10361832;28;20049;-77
2022/12/05 05:21:42;;;;;;;46.13;22.08;;;;;;;1.91;81.56;100610.09;10361053;28;20718;-77
2022/12/05 05:26:46;;;;;;;41.92;21.35;;;;;;;1.93;81.70;100608.25;10378860;28;20069;-78
2022/12/05 05:31:55;;;;;;;42.22;21.48;;;;;;;1.89;81.49;100610.19;10364714;28;20149;-78
2022/12/05 05:37:00;;;;;;;43.72;19.88;;;;;;;1.94;81.69;100612.63;10362433;28;20144;-80
2022/12/05 05:42:03;;;;;;;45.72;20.52;;;;;;;2.00;81.86;100611.50;10375872;28;20057;-80
2022/12/05 05:47:05;;;;;;;40.55;19.83;;;;;;;2.01;81.91;100616.75;10398395;28;20046;-80
2022/12/05 05:52:10;;;;;;;42.70;19.50;;;;;;;2.03;81.77;100625.50;10411221;28;20084;-80
2022/12/05 05:57:12;;;;;;;40.30;20.67;;;;;;;2.05;81.86;100617.47;10393059;28;20053;-79
2022/12/05 06:02:22;;;;;;;40.67;20.33;;;;;;;2.04;81.76;100623.72;10391109;28;20072;-78
2022/12/05 06:07:27;;;;;;;40.15;18.90;;;;;;;2.02;81.76;100629.06;10395138;28;20075;-80
2022/12/05 06:12:30;;;;;;;39.85;20.60;;;;;;;2.02;81.94;100634.38;10370516;28;20058;-79
2022/12/05 06:17:33;;;;;;;41.28;20.42;;;;;;;2.05;81.97;100634.22;10381948;28;20499;-79
2022/12/05 06:22:37;;;;;;;41.67;21.25;;;;;;;2.02;81.64;100637.00;10375902;28;20069;-79
2022/12/05 06:27:40;;;;;;;41.20;19.88;;;;;;;1.98;81.68;100640.72;10394461;28;20088;-79
2022/12/05 06:32:43;;;;;;;38.05;20.08;;;;;;;2.02;81.68;100641.47;10393031;28;20045;-79
2022/12/05 06:37:47;;;;;;;42.47;20.77;;;;;;;1.94;81.77;100634.69;10384530;28;20054;-79
2022/12/05 06:42:50;;;;;;;43.67;20.85;;;;;;;1.89;81.79;100646.38;10387104;28;20052;-79
2022/12/05 06:47:52;;;;;;;48.92;21.67;;;;;;;1.79;82.00;100648.56;10397356;28;20082;-79
2022/12/05 06:52:57;;;;;;;44.88;21.15;;;;;;;1.69;81.95;100653.34;10372926;28;20053;-80
2022/12/05 06:57:59;;;;;;;40.03;20.15;;;;;;;1.67;82.35;100660.53;10387607;28;20046;-80
2022/12/05 07:03:02;;;;;;;41.10;20.05;;;;;;;1.72;82.84;100663.81;10367642;28;20053;-80
2022/12/05 07:08:06;;;;;;;44.10;21.58;;;;;;;1.69;82.73;100663.09;10384557;28;20066;-81
2022/12/05 07:13:09;;;;;;;42.08;21.25;;;;;;;1.63;83.00;100658.91;10389193;28;20491;-82
2022/12/05 07:18:17;;;;;;;39.97;19.38;;;;;;;1.61;83.09;100668.69;10387596;28;20462;-81
2022/12/05 07:23:21;;;;;;;42.70;18.65;;;;;;;1.56;83.38;100667.13;10368912;28;20160;-82
2022/12/05 07:28:25;;;;;;;40.83;19.83;;;;;;;1.50;83.59;100668.25;10379484;28;20045;-81
2022/12/05 07:33:28;;;;;;;42.85;19.98;;;;;;;1.39;83.25;100673.09;10396491;28;20049;-82
2022/12/05 07:38:32;;;;;;;39.85;19.33;;;;;;;1.21;82.86;100679.97;10372233;28;20137;-81
2022/12/05 07:43:35;;;;;;;33.88;17.33;;;;;;;1.14;83.65;100681.09;10378990;28;20077;-81
2022/12/05 07:48:39;;;;;;;25.77;10.77;;;;;;;1.09;83.71;100678.63;10363618;28;20510;-80
2022/12/05 07:53:43;;;;;;;69.95;28.95;;;;;;;1.39;83.78;100676.59;10379342;28;20053;-81
2022/12/05 07:58:48;;;;;;;47.78;22.70;;;;;;;1.50;83.33;100679.69;10378463;28;20049;-80
2022/12/05 08:03:53;;;;;;;13.43;9.05;;;;;;;1.63;83.30;100679.22;10376404;28;20041;-82
2022/12/05 08:08:58;;;;;;;13.98;8.77;;;;;;;1.72;83.40;100685.00;10375722;28;20038;-81
2022/12/05 08:14:00;;;;;;;18.23;11.63;;;;;;;1.79;83.11;100685.66;10375810;28;20113;-81
2022/12/05 08:19:07;;;;;;;21.63;11.35;;;;;;;1.72;83.31;100686.81;10373308;28;20092;-82
2022/12/05 08:24:11;;;;;;;25.77;13.02;;;;;;;1.40;83.23;100686.28;10371868;28;20053;-82
2022/12/05 08:29:15;;;;;;;26.77;14.10;;;;;;;1.35;83.95;100696.19;10356546;28;20495;-81
2022/12/05 08:34:19;;;;;;;26.42;14.88;;;;;;;1.41;84.56;100695.09;10340927;28;20072;-82
2022/12/05 08:39:25;;;;;;;26.23;15.05;;;;;;;1.34;84.32;100698.88;10373339;28;20116;-80
2022/12/05 08:44:28;;;;;;;27.77;15.80;;;;;;;1.28;84.76;100700.81;10341191;28;20178;-80
2022/12/05 08:49:31;;;;;;;30.02;15.27;;;;;;;1.19;84.36;100709.13;10361674;28;20062;-79
2022/12/05 08:54:35;;;;;;;35.50;16.48;;;;;;;1.10;84.49;100705.94;10382618;28;20053;-80
2022/12/05 08:59:38;;;;;;;32.92;16.48;;;;;;;0.97;84.49;100703.75;10412554;28;20440;-79
2022/12/05 09:04:40;;;;;;;30.85;16.63;;;;;;;0.90;84.31;100706.66;10380011;28;20077;-80
2022/12/05 09:09:45;;;;;;;39.58;18.98;;;;;;;0.82;84.06;100714.84;10381139;28;20069;-80
2022/12/05 09:14:47;;;;;;;38.05;18.33;;;;;;;0.74;83.86;100720.44;10390048;28;20466;-80
2022/12/05 09:19:51;;;;;;;36.72;19.55;;;;;;;0.65;84.16;100714.59;10399891;28;20049;-79
2022/12/05 09:24:56;;;;;;;38.90;17.88;;;;;;;0.60;84.02;100707.69;10389251;28;20054;-79
2022/12/05 09:29:59;;;;;;;35.58;19.45;;;;;;;0.60;83.93;100714.75;10384973;28;20068;-80
2022/12/05 09:35:02;;;;;;;33.38;17.40;;;;;;;0.58;83.86;100716.59;10386617;28;20513;-78
2022/12/05 09:40:17;;;;;;;42.45;23.52;;;;;;;0.61;84.43;100716.50;10386318;28;20558;-78
2022/12/05 09:45:28;;;;;;;50.75;28.05;;;;;;;0.61;83.88;100719.13;10391081;28;20045;-79
2022/12/05 09:50:34;;;;;;;42.05;21.67;;;;;;;0.58;84.03;100727.19;10388455;28;20052;-79
2022/12/05 09:55:44;;;;;;;40.67;21.15;;;;;;;0.58;84.44;100714.81;10368143;28;20076;-80
2022/12/05 10:00:48;;;;;;;44.60;20.55;;;;;;;0.57;83.81;100723.66;10395974;28;20502;-79
2022/12/05 10:05:56;;;;;;;38.58;19.70;;;;;;;0.56;83.99;100715.78;10378113;28;20053;-81
2022/12/05 10:11:05;;;;;;;34.03;18.73;;;;;;;0.53;84.50;100714.09;10395031;28;20034;-78
2022/12/05 10:16:13;;;;;;;35.60;17.70;;;;;;;0.49;84.25;100719.53;10398412;28;20034;-80
2022/12/05 10:21:21;;;;;;;34.55;17.90;;;;;;;0.49;84.40;100719.53;10406314;28;20090;-80
2022/12/05 10:26:30;;;;;;;34.88;18.83;;;;;;;0.45;83.74;100720.56;10388707;28;20388;-80
2022/12/05 10:31:37;;;;;;;37.97;18.75;;;;;;;0.55;84.50;100711.41;10386233;28;20037;-79
2022/12/05 10:36:44;;;;;;;37.85;17.98;;;;;;;0.49;84.59;100709.81;10382056;28;20104;-79
2022/12/05 10:41:48;;;;;;;32.10;17.00;;;;;;;0.64;84.63;100707.59;10411180;28;20082;-79
2022/12/05 10:46:51;;;;;;;43.90;23.15;;;;;;;0.65;84.52;100702.22;10387930;28;20050;-79
2022/12/05 10:51:54;;;;;;;41.22;22.88;;;;;;;0.71;84.51;100703.81;10393946;28;20115;-79
2022/12/05 10:56:58;;;;;;;39.25;23.90;;;;;;;0.78;84.55;100695.59;10399651;28;20042;-79
2022/12/05 11:02:01;;;;;;;37.95;20.05;;;;;;;0.84;84.64;100695.38;10397343;28;20060;-80
2022/12/05 11:07:05;;;;;;;41.55;18.45;;;;;;;0.77;83.83;100693.03;10374948;28;20429;-81
2022/12/05 11:12:21;;;;;;;36.05;19.15;;;;;;;0.81;84.21;100699.94;10405048;28;20038;-81
2022/12/05 11:17:29;;;;;;;34.13;18.45;;;;;;;0.82;84.27;100694.59;10377585;28;20418;-81
2022/12/05 11:22:34;;;;;;;36.90;19.15;;;;;;;0.95;84.16;100694.13;10376650;28;20446;-81
2022/12/05 11:27:38;;;;;;;33.50;18.67;;;;;;;0.79;83.51;100686.75;10383047;28;20453;-81
2022/12/05 11:32:41;;;;;;;36.03;19.52;;;;;;;0.69;83.61;100684.50;10380495;28;20049;-81
2022/12/05 11:37:48;;;;;;;35.95;19.08;;;;;;;0.87;83.66;100688.25;10376428;28;20045;-80
2022/12/05 11:43:17;;;;;;;34.10;18.52;;;;;;;0.81;83.01;100692.00;10356433;28;20447;-81
2022/12/05 11:48:40;;;;;;;36.70;19.25;;;;;;;0.65;83.54;100696.09;10366401;28;20042;-81
2022/12/05 11:54:02;;;;;;;36.03;18.65;;;;;;;0.69;83.73;100676.56;10376616;28;20046;-82
2022/12/05 11:59:47;;;;;;;34.07;18.93;;;;;;;0.73;83.40;100686.09;10373184;28;20068;-82
2022/12/05 12:04:58;;;;;;;32.95;17.88;;;;;;;0.77;83.89;100688.59;10378376;28;20081;-81
2022/12/05 12:10:13;;;;;;;35.33;17.00;;;;;;;0.65;83.83;100682.88;10377213;28;20049;-82
2022/12/05 12:15:50;;;;;;;30.92;17.58;;;;;;;0.68;83.94;100675.69;10368646;28;20073;-82
2022/12/05 12:21:07;;;;;;;27.00;16.13;;;;;;;0.50;83.91;100689.56;10380769;28;20049;-81
2022/12/05 12:26:14;;;;;;;28.25;16.83;;;;;;;0.55;84.02;100684.97;10397390;28;20544;-81
2022/12/05 12:31:40;;;;;;;26.70;16.48;;;;;;;0.52;84.00;100678.03;10395885;28;20411;-82
2022/12/05 12:36:48;;;;;;;28.33;15.73;;;;;;;0.58;84.15;100676.94;10389760;28;20118;-83
2022/12/05 12:42:03;;;;;;;28.00;16.48;;;;;;;0.53;84.40;100670.94;10372362;28;20042;-83
2022/12/05 12:47:13;;;;;;;32.97;18.48;;;;;;;0.69;84.63;100666.00;10386934;28;20068;-80
2022/12/05 12:52:21;;;;;;;40.25;21.08;;;;;;;0.71;84.14;100667.63;10385017;28;20452;-80
2022/12/05 12:57:32;;;;;;;36.92;19.63;;;;;;;0.70;84.42;100665.91;10383117;28;20117;-82
2022/12/05 13:02:43;;;;;;;41.47;21.25;;;;;;;0.63;83.71;100664.41;10365910;28;20050;-81
2022/12/05 13:07:50;;;;;;;40.10;21.67;;;;;;;0.50;84.16;100664.00;10363383;28;20058;-81
2022/12/05 13:12:55;;;;;;;39.08;22.60;;;;;;;0.55;84.16;100653.22;10382665;28;20066;-82
2022/12/05 13:17:59;;;;;;;41.30;21.98;;;;;;;0.62;84.25;100654.75;10380031;28;20042;-82
2022/12/05 13:23:06;;;;;;;39.35;20.52;;;;;;;0.68;84.44;100653.66;10375181;28;20062;-82
2022/12/05 13:28:26;;;;;;;42.60;22.85;;;;;;;0.73;84.86;100654.38;10381612;28;20506;-82
2022/12/05 13:33:36;;;;;;;42.75;23.05;;;;;;;0.68;84.31;100658.97;10420892;28;20064;-80
2022/12/05 13:44:10;;;;;;;31.40;16.83;;;;;;;0.58;84.51;100669.88;10368391;28;20511;-82
2022/12/05 13:49:19;;;;;;;37.50;20.58;;;;;;;0.60;84.04;100675.97;10383089;28;20415;-84
2022/12/05 13:54:27;;;;;;;45.17;23.55;;;;;;;0.66;84.63;100677.53;10381006;28;20478;-81
2022/12/05 14:00:03;;;;;;;37.60;20.08;;;;;;;0.67;84.38;100668.69;10347755;28;20458;-82
2022/12/05 14:05:40;;;;;;;34.42;18.48;;;;;;;0.64;84.47;100671.44;10373056;28;20430;-81
2022/12/05 14:11:09;;;;;;;35.63;19.08;;;;;;;0.54;84.30;100673.53;10420146;28;20065;-82
2022/12/05 14:16:43;;;;;;;39.28;19.35;;;;;;;0.50;84.33;100676.34;10396769;28;20053;-82
2022/12/05 14:22:02;;;;;;;34.83;19.85;;;;;;;0.46;84.42;100680.84;10359352;28;20045;-81
2022/12/05 14:27:13;;;;;;;36.65;21.20;;;;;;;0.45;84.41;100680.94;10369451;28;20046;-80
2022/12/05 14:32:24;;;;;;;36.50;20.27;;;;;;;0.46;84.57;100680.84;10371992;28;20120;-81
2022/12/05 14:37:31;;;;;;;37.35;20.27;;;;;;;0.39;84.49;100682.84;10356553;28;20053;-80
2022/12/05 14:42:38;;;;;;;34.20;18.70;;;;;;;0.37;84.81;100679.41;10380532;28;20165;-81
2022/12/05 14:47:51;;;;;;;38.83;21.20;;;;;;;0.29;84.57;100681.44;10341211;28;20073;-81
2022/12/05 14:53:22;;;;;;;40.15;22.52;;;;;;;0.39;84.95;100679.34;10374424;28;20121;-80
2022/12/05 14:58:34;;;;;;;41.10;21.88;;;;;;;0.49;84.90;100680.75;10347007;28;20133;-80
2022/12/05 15:03:39;;;;;;;31.52;17.13;;;;;;;0.39;84.63;100679.34;10377974;28;20140;-81
2022/12/05 15:08:47;;;;;;;38.42;19.52;;;;;;;0.19;85.04;100684.44;10362348;28;20077;-81
2022/12/05 15:13:52;;;;;;;34.40;19.60;;;;;;;0.27;84.81;100679.75;10382808;28;20116;-83
2022/12/05 15:19:00;;;;;;;32.13;17.92;;;;;;;0.25;84.71;100693.03;10362240;28;20045;-80
2022/12/05 15:24:06;;;;;;;32.65;18.02;;;;;;;0.29;85.07;100702.56;10376461;28;20073;-80
2022/12/05 15:29:12;;;;;;;49.03;24.73;;;;;;;0.32;85.02;100697.19;10375678;28;20376;-80
2022/12/05 15:34:21;;;;;;;39.05;20.55;;;;;;;0.29;84.66;100718.44;10372255;28;20049;-80
2022/12/05 15:39:27;;;;;;;35.60;21.60;;;;;;;0.27;85.05;100722.91;10359446;28;20050;-80
2022/12/05 15:44:30;;;;;;;42.13;22.50;;;;;;;0.36;85.09;100716.47;10362360;28;20068;-80
2022/12/05 15:49:39;;;;;;;45.08;25.67;;;;;;;0.44;84.96;100722.34;10378932;28;20113;-81
2022/12/05 15:54:45;;;;;;;54.97;27.17;;;;;;;0.45;84.95;100718.78;10384997;28;20056;-82
2022/12/05 15:59:53;;;;;;;47.67;25.00;;;;;;;0.41;85.17;100722.44;10396457;28;20053;-82
2022/12/05 16:04:58;;;;;;;43.55;24.33;;;;;;;0.38;85.08;100718.16;10380640;28;20049;-81
2022/12/05 16:10:05;;;;;;;58.30;26.52;;;;;;;0.41;85.18;100725.06;10377181;28;20041;-81
2022/12/05 16:15:14;;;;;;;47.35;26.08;;;;;;;0.46;85.08;100730.22;10386159;28;20053;-83
2022/12/05 16:20:28;;;;;;;50.55;26.60;;;;;;;0.45;85.03;100724.06;10370965;28;20479;-83
2022/12/05 16:25:35;;;;;;;44.42;23.77;;;;;;;0.44;85.27;100724.13;10377080;28;20048;-83
2022/12/05 16:30:38;;;;;;;48.88;24.83;;;;;;;0.30;85.38;100727.22;10377358;28;20042;-83
2022/12/05 16:35:44;;;;;;;44.20;24.63;;;;;;;0.44;85.64;100727.66;10375536;28;20852;-82
2022/12/05 16:40:57;;;;;;;38.92;20.67;;;;;;;0.40;85.09;100723.38;10372583;28;20042;-82
2022/12/05 16:46:42;;;;;;;35.70;20.85;;;;;;;0.37;85.30;100728.75;10397342;28;20141;-83
2022/12/05 16:51:55;;;;;;;45.17;24.55;;;;;;;0.41;85.45;100726.88;10408640;28;20030;-82
2022/12/05 16:57:01;;;;;;;42.30;22.08;;;;;;;0.36;85.91;100730.53;10401632;28;20057;-84
2022/12/05 17:02:07;;;;;;;42.78;23.48;;;;;;;0.45;85.90;100724.06;10383143;28;20046;-84
2022/12/05 17:07:11;;;;;;;45.80;23.38;;;;;;;0.40;86.02;100736.56;10383033;28;20037;-84
2022/12/05 17:12:21;;;;;;;49.53;25.58;;;;;;;0.53;85.73;100737.91;10367339;28;20096;-83
2022/12/05 17:17:23;;;;;;;41.10;23.75;;;;;;;0.61;85.92;100727.06;10374113;28;20430;-84
2022/12/05 17:22:32;;;;;;;43.30;23.45;;;;;;;0.61;85.70;100732.34;10341353;28;20069;-84
2022/12/05 17:27:36;;;;;;;43.65;25.45;;;;;;;0.64;85.83;100726.97;10388123;28;20069;-83
2022/12/05 17:32:39;;;;;;;41.60;23.13;;;;;;;0.61;86.11;100732.34;10386535;28;20045;-84
2022/12/05 17:37:42;;;;;;;41.10;23.45;;;;;;;0.54;85.85;100734.31;10384705;28;20038;-84
2022/12/05 17:42:47;;;;;;;47.25;26.25;;;;;;;0.61;86.45;100740.28;10405115;28;20050;-83
2022/12/05 17:47:50;;;;;;;41.95;24.13;;;;;;;0.66;86.38;100745.41;10407837;28;20049;-84
2022/12/05 17:52:55;;;;;;;56.10;28.27;;;;;;;0.64;86.41;100741.97;10399566;28;20068;-84
2022/12/05 17:57:59;;;;;;;54.15;28.33;;;;;;;0.71;86.30;100746.97;10391190;28;20076;-83
2022/12/05 18:03:03;;;;;;;54.55;27.98;;;;;;;0.77;86.36;100756.50;10384017;28;20081;-83
2022/12/05 18:08:07;;;;;;;47.08;26.60;;;;;;;0.76;86.54;100745.03;10379424;28;20113;-83
2022/12/05 18:13:13;;;;;;;44.70;26.73;;;;;;;0.78;86.63;100752.94;10371595;28;20056;-83
2022/12/05 18:18:17;;;;;;;45.22;25.52;;;;;;;0.83;86.34;100746.56;10396332;28;20042;-83
2022/12/05 18:23:20;;;;;;;42.00;25.05;;;;;;;0.82;86.32;100747.50;10373597;28;20050;-84
2022/12/05 18:28:24;;;;;;;40.67;23.02;;;;;;;0.79;86.10;100759.94;10369302;28;20096;-84
2022/12/05 18:33:27;;;;;;;43.30;24.95;;;;;;;0.80;86.69;100754.59;10366937;28;20054;-84
2022/12/05 18:38:30;;;;;;;37.42;23.83;;;;;;;0.79;86.77;100752.00;10356451;28;20131;-84
2022/12/05 18:43:35;;;;;;;49.33;28.00;;;;;;;0.83;86.68;100765.06;10378623;28;20048;-84
2022/12/05 18:48:38;;;;;;;41.85;23.10;;;;;;;0.90;86.74;100762.22;10372786;28;20122;-84
2022/12/05 18:53:50;;;;;;;36.97;20.73;;;;;;;0.90;86.42;100768.34;10356342;28;20053;-83
2022/12/05 18:58:58;;;;;;;33.35;19.52;;;;;;;0.89;86.58;100768.44;10380678;28;20068;-83
2022/12/05 19:04:02;;;;;;;35.75;20.25;;;;;;;0.88;86.75;100780.78;10380164;28;20041;-82
2022/12/05 19:09:08;;;;;;;30.98;17.67;;;;;;;0.82;86.20;100781.88;10377200;28;20060;-83
2022/12/05 19:14:13;;;;;;;25.40;16.52;;;;;;;0.76;86.33;100774.13;10379829;28;20061;-82
2022/12/05 19:19:16;;;;;;;25.00;15.85;;;;;;;0.81;86.50;100780.13;10367797;28;20077;-81
2022/12/05 19:24:19;;;;;;;28.08;16.45;;;;;;;0.74;86.42;100775.97;10360706;28;20463;-81
2022/12/05 19:29:23;;;;;;;22.17;15.02;;;;;;;0.72;86.42;100792.81;10378453;28;20042;-79
2022/12/05 19:34:26;;;;;;;24.63;14.98;;;;;;;0.70;86.07;100795.50;10365325;28;20045;-84
2022/12/05 19:39:29;;;;;;;22.38;14.82;;;;;;;0.72;86.71;100787.53;10379101;28;20069;-82
2022/12/05 19:44:33;;;;;;;25.88;17.33;;;;;;;0.69;86.28;100793.78;10360457;28;20092;-82
2022/12/05 19:49:36;;;;;;;25.40;15.45;;;;;;;0.69;86.32;100796.44;10366555;28;20054;-81
2022/12/05 19:54:39;;;;;;;27.27;17.33;;;;;;;0.75;86.41;100790.06;10402422;28;20045;-81
2022/12/05 19:59:43;;;;;;;23.73;15.73;;;;;;;0.77;86.28;100794.38;10383140;28;20490;-83
2022/12/05 20:04:46;;;;;;;20.42;14.35;;;;;;;0.67;85.75;100784.16;10380508;28;20065;-82
2022/12/05 20:09:49;;;;;;;22.38;14.00;;;;;;;0.61;86.61;100791.38;10379307;28;20080;-84
2022/12/05 20:14:56;;;;;;;23.70;15.75;;;;;;;0.63;86.35;100782.53;10362072;28;20069;-85
2022/12/05 20:19:59;;;;;;;24.05;14.27;;;;;;;0.64;86.47;100777.19;10361760;28;20057;-83
2022/12/05 20:25:02;;;;;;;22.73;14.05;;;;;;;0.63;86.26;100782.53;10377230;28;20080;-82
2022/12/05 20:30:09;;;;;;;21.40;14.50;;;;;;;0.57;86.11;100789.75;10358770;28;20114;-82
2022/12/05 20:35:11;;;;;;;21.40;13.43;;;;;;;0.63;86.34;100788.66;10377121;28;20038;-82
2022/12/05 20:40:15;;;;;;;24.83;14.52;;;;;;;0.61;86.45;100777.31;10381192;28;20436;-81
2022/12/05 20:45:19;;;;;;;22.55;13.95;;;;;;;0.57;85.89;100780.94;10369081;28;20056;-82
2022/12/05 20:50:22;;;;;;;23.23;13.93;;;;;;;0.56;85.83;100792.44;10370987;28;20078;-82
2022/12/05 20:55:25;;;;;;;21.40;13.70;;;;;;;0.56;85.67;100792.44;10389051;28;20038;-82
2022/12/05 21:00:29;;;;;;;18.30;12.23;;;;;;;0.49;86.21;100786.47;10367408;28;20581;-82
2022/12/05 21:05:36;;;;;;;21.10;12.20;;;;;;;0.50;86.29;100800.59;10390687;28;20046;-82
2022/12/05 21:10:44;;;;;;;19.45;12.07;;;;;;;0.59;85.87;100784.41;10388817;28;20077;-82
2022/12/05 21:15:48;;;;;;;21.45;12.73;;;;;;;0.52;85.83;100785.53;10392862;28;20056;-83
2022/12/05 21:20:57;;;;;;;17.50;11.77;;;;;;;0.46;86.41;100789.22;10388858;28;20049;-83
2022/12/05 21:26:01;;;;;;;20.98;12.02;;;;;;;0.56;86.30;100782.75;10363057;28;20157;-83
2022/12/05 21:31:07;;;;;;;15.93;11.45;;;;;;;0.59;86.06;100773.84;10388393;28;20087;-83
2022/12/05 21:36:10;;;;;;;18.23;12.50;;;;;;;0.61;86.13;100759.66;10387879;28;20042;-83
2022/12/05 21:41:14;;;;;;;16.52;11.23;;;;;;;0.69;86.35;100767.34;10364994;28;20041;-84
2022/12/05 21:46:18;;;;;;;18.88;12.48;;;;;;;0.61;86.38;100762.28;10384077;28;20129;-82
2022/12/05 21:51:22;;;;;;;21.10;13.77;;;;;;;0.64;86.57;100773.69;10379541;28;20038;-82
2022/12/05 21:56:27;;;;;;;19.83;12.65;;;;;;;0.53;86.59;100772.28;10376505;28;20061;-82
2022/12/05 22:01:31;;;;;;;19.27;13.73;;;;;;;0.67;86.36;100760.38;10399866;28;21040;-82
2022/12/05 22:06:34;;;;;;;21.52;12.90;;;;;;;0.76;86.40;100762.69;10412050;28;20042;-82
2022/12/05 22:11:37;;;;;;;17.65;12.25;;;;;;;0.64;86.14;100771.91;10386881;28;20050;-83
2022/12/05 22:16:41;;;;;;;17.98;12.48;;;;;;;0.60;86.32;100789.66;10394200;28;20034;-82
2022/12/05 22:21:44;;;;;;;19.38;13.15;;;;;;;0.65;86.39;100786.84;10375728;28;20037;-83
2022/12/05 22:26:47;;;;;;;18.48;12.98;;;;;;;0.51;86.65;100783.81;10399541;28;20073;-83
2022/12/05 22:31:51;;;;;;;18.38;12.45;;;;;;;0.27;86.79;100781.03;10380266;28;20069;-82
2022/12/05 22:36:54;;;;;;;14.43;10.30;;;;;;;0.12;86.89;100784.19;10381286;28;20145;-83
2022/12/05 22:41:58;;;;;;;16.80;10.90;;;;;;;0.48;86.43;100778.63;10396819;28;20042;-83
2022/12/05 22:47:02;;;;;;;15.20;11.02;;;;;;;0.08;86.46;100778.13;10395155;28;20038;-83
2022/12/05 22:52:05;;;;;;;16.25;11.65;;;;;;;0.36;86.33;100766.69;10395870;28;20034;-83
2022/12/05 22:57:08;;;;;;;17.52;10.98;;;;;;;0.33;86.50;100759.72;10409579;28;20065;-80
2022/12/05 23:02:12;;;;;;;16.20;11.73;;;;;;;0.36;85.86;100761.41;10385002;28;20057;-82
2022/12/05 23:07:15;;;;;;;15.73;11.38;;;;;;;0.47;85.73;100753.97;10387302;28;20058;-83
2022/12/05 23:12:18;;;;;;;16.45;10.88;;;;;;;0.43;86.03;100757.63;10398554;28;20046;-82
2022/12/05 23:17:22;;;;;;;15.45;10.57;;;;;;;0.45;85.73;100754.94;10384019;28;20057;-83
2022/12/05 23:22:24;;;;;;;16.40;10.57;;;;;;;0.43;85.96;100749.69;10395962;28;20057;-82
2022/12/05 23:27:27;;;;;;;15.20;10.48;;;;;;;0.40;86.10;100744.50;10409674;28;20091;-83
2022/12/05 23:32:32;;;;;;;15.00;10.70;;;;;;;0.29;86.34;100744.00;10386825;28;20050;-83